Ominato, Japan

11:12 PM JST on August 01, 2015 (GMT +0900)
Aomori | | Change Station
CLOSE
Current Station
Airport
Location: Aomori Airport,
Elevation: 659 ft
Nearby Weather Stations

Elev 659 ft 40.73 °N, 140.69 °E | Updated 2 hours ago

Mostly Cloudy
Mostly Cloudy
72 °F
Feels Like 72 °F
N
6
Wind Variable Wind from SSW

Today
High -- | Low -- °F
--% Chance of Precip.
Yesterday
High -- | Low -- °F
Precip. -- in
4:29 AM 6:52 PM
Full, 98% visible
Pressure 29.92 in
Visibility 6.2 miles
Clouds Few 1000 ft
Scattered Clouds 1500 ft
Mostly Cloudy 2500 ft
Dew Point 68 °F
Humidity 88%
Rainfall 0.00 in
Snow Depth Not available.
UV 0 out of 12
Pollen Not available.
Air Quality Not available.
Flu Activity Not available.
METAR RJSA 011200Z 21005KT 9999 FEW010 SCT015 BKN025 22/20 Q1013

More Conditions Fewer Conditions

Pressure 29.92 in
Visibility 6.2 miles
Clouds Few 1000 ft
Scattered Clouds 1500 ft
Mostly Cloudy 2500 ft
Dew Point 68 °F
Humidity 88%
Rainfall 0.00 in
Snow Depth Not available.
UV 0 out of 12
Pollen Not available.
Air Quality Not available.
Flu Activity Not available.
METAR RJSA 011200Z 21005KT 9999 FEW010 SCT015 BKN025 22/20 Q1013

More Conditions Fewer Conditions

10-Day Weather Forecast

×

Almanac

Astronomy

Aug. 01, 2015 Rise Set
Actual Time
Civil Twilight
Nautical Twilight
Astronomical Twilight
Moon
Length of Visible Light
Length of Day
Tomorrow will be .
, % of the Moon is Illuminated

Today's Extremes

Country Highs Country Lows

Community

WunderPhotos

Upload Photos

1,842,952 photos uploaded!

WunderBlogs® & News

Nearby

Air Quality

  Air Quality AQ Index Pollutant
Not available.

Snow Depth

Station Depth Elevation

Earthquake Activity

City Distance Mag. Time & Date
Minimum magnitude displayed is 2.5.

Coastal Water Temperatures

Place Temperature

Stations

Nearby Weather Stations

Station Location Temp. Windchill Dew Point Humidity Wind Precip. Elev Updated Type